Denver, Colorado
Traffic Map
Current Weather Conditions
Denver, Colorado
Broken Clouds
Broken Clouds
20°
Feels Like: 20°
Wind Chill: 20° Ceiling: 20000
Heat Index: 20° Visibility: 10mi
Dew Point: 12° Wind: 5mph
Humidity: 60% Direction: 180° (S)
Pressure: 30.28in Gusts: 0mph
Raw Report DataKBKF 010158Z 18004KT 10SM FEW060 BKN200 20/12 A3028 RMK AO2A SLP195 T02010120
Traffic Incident Summary
Active as of:
Severity:
Category:
InformationThere was an issue retrieving the traffic information for this location. Please try a different location or try again shortly.
Advertisements
Track Severe Weather on mobile